Time;durP1;ratioP1;P1;durP2;ratioP2;P2;SDS_P1;SDS_P2;PMS_P1;PMS_P2;Temp;Humidity;BMP_temperature;BMP_pressure;BME280_temperature;BME280_humidity;BME280_pressure;Samples;Min_cycle;Max_cycle;Signal;HPM_P1;HPM_P2
2022/06/03 00:00:09;;;;;;;3.60;3.30;;;;;;;;;;4994803;28;20174;-83
2022/06/03 00:03:50;;;;;;;4.83;3.37;;;;;;;;;;4995714;28;20629;-83
2022/06/03 00:07:28;;;;;;;3.60;3.30;;;;;;;;;;4983721;28;20214;-83
2022/06/03 00:10:53;;;;;;;3.80;3.17;;;;;;;;;;4983203;28;20178;-83
2022/06/03 00:14:28;;;;;;;3.87;3.03;;;;;;;;;;4983581;28;20194;-83
2022/06/03 00:17:56;;;;;;;5.63;3.33;;;;;;;;;;4993458;23;20581;-84
2022/06/03 00:21:04;;;;;;;4.33;3.43;;;;;;;;;;4964044;28;20171;-84
2022/06/03 00:24:21;;;;;;;5.13;3.70;;;;;;;;;;4964163;28;20179;-84
2022/06/03 00:27:58;;;;;;;3.43;3.13;;;;;;;;;;4963816;28;20219;-83
2022/06/03 00:31:44;;;;;;;4.90;3.43;;;;;;;;;;4975448;28;20187;-83
2022/06/03 00:35:21;;;;;;;8.73;3.60;;;;;;;;;;4960764;28;20207;-84
2022/06/03 00:38:44;;;;;;;3.47;3.17;;;;;;;;;;4963877;28;20183;-84
2022/06/03 00:42:02;;;;;;;3.50;3.20;;;;;;;;;;4952735;28;20183;-84
2022/06/03 00:45:22;;;;;;;4.37;3.40;;;;;;;;;;4974592;28;20622;-84
2022/06/03 00:48:42;;;;;;;6.83;3.40;;;;;;;;;;4974927;28;20207;-83
2022/06/03 00:52:21;;;;;;;3.63;3.33;;;;;;;;;;4963548;28;20183;-83
2022/06/03 00:55:52;;;;;;;3.60;2.97;;;;;;;;;;4974526;28;20190;-83
2022/06/03 00:59:08;;;;;;;6.63;3.23;;;;;;;;;;4963290;28;20183;-83
2022/06/03 01:02:25;;;;;;;3.90;3.60;;;;;;;;;;4974781;28;20199;-83
2022/06/03 01:05:38;;;;;;;5.07;3.47;;;;;;;;;;4974243;28;20553;-83
2022/06/03 01:08:48;;;;;;;3.47;3.17;;;;;;;;;;4985436;28;20215;-83
2022/06/03 01:12:10;;;;;;;5.87;3.33;;;;;;;;;;4963215;28;20190;-83
2022/06/03 01:15:28;;;;;;;4.83;3.40;;;;;;;;;;4952220;28;20183;-83
2022/06/03 01:18:40;;;;;;;3.87;3.47;;;;;;;;;;4974133;28;20172;-83
2022/06/03 01:22:12;;;;;;;4.53;3.70;;;;;;;;;;4963333;28;20179;-83
2022/06/03 01:25:31;;;;;;;4.90;3.43;;;;;;;;;;4951835;28;20182;-83
2022/06/03 01:28:35;;;;;;;8.07;3.50;;;;;;;;;;4963005;28;20211;-83
2022/06/03 01:32:14;;;;;;;4.23;3.37;;;;;;;;;;4973966;28;20179;-83
2022/06/03 01:35:36;;;;;;;4.50;3.60;;;;;;;;;;4974262;28;20179;-83
2022/06/03 01:39:09;;;;;;;5.13;3.40;;;;;;;;;;4951961;28;20187;-83
2022/06/03 01:42:50;;;;;;;4.07;3.20;;;;;;;;;;4956056;28;20174;-83
2022/06/03 01:46:23;;;;;;;4.33;3.40;;;;;;;;;;4956100;28;20183;-83
2022/06/03 01:49:52;;;;;;;3.73;3.30;;;;;;;;;;4977736;28;20202;-83
2022/06/03 01:53:18;;;;;;;7.30;4.63;;;;;;;;;;4955689;28;20186;-83
2022/06/03 01:56:47;;;;;;;4.33;3.80;;;;;;;;;;4977358;28;20218;-83
2022/06/03 02:00:22;;;;;;;5.27;3.63;;;;;;;;;;4966494;28;20179;-83
2022/06/03 02:03:45;;;;;;;4.87;4.03;;;;;;;;;;4978192;28;20634;-83
2022/06/03 02:07:17;;;;;;;3.57;3.27;;;;;;;;;;4977372;28;20218;-83
2022/06/03 02:10:58;;;;;;;6.03;4.10;;;;;;;;;;4977304;28;20206;-83
2022/06/03 02:14:14;;;;;;;5.27;3.90;;;;;;;;;;4966444;28;20186;-83
2022/06/03 02:17:37;;;;;;;4.70;4.30;;;;;;;;;;4966095;28;20234;-83
2022/06/03 02:21:07;;;;;;;4.27;3.50;;;;;;;;;;4977371;28;20187;-83
2022/06/03 02:24:32;;;;;;;3.43;3.13;;;;;;;;;;4955182;28;20183;-83
2022/06/03 02:27:50;;;;;;;4.57;3.30;;;;;;;;;;4966077;28;20222;-83
2022/06/03 02:31:21;;;;;;;4.10;3.67;;;;;;;;;;4965975;28;20512;-83
2022/06/03 02:34:49;;;;;;;5.73;4.03;;;;;;;;;;4955014;28;20186;-83
2022/06/03 02:37:56;;;;;;;4.33;3.87;;;;;;;;;;4976923;28;20218;-83
2022/06/03 02:41:39;;;;;;;4.47;4.07;;;;;;;;;;4954793;28;20634;-83
2022/06/03 02:44:47;;;;;;;6.10;4.07;;;;;;;;;;4954604;28;20199;-83
2022/06/03 02:48:32;;;;;;;4.70;3.90;;;;;;;;;;4954774;28;20218;-83
2022/06/03 02:51:45;;;;;;;5.70;3.97;;;;;;;;;;4953364;28;20184;-83
2022/06/03 02:55:42;;;;;;;6.60;4.30;;;;;;;;;;4976656;28;20195;-83
2022/06/03 02:59:08;;;;;;;4.93;4.33;;;;;;;;;;4962370;28;20206;-83
2022/06/03 03:02:48;;;;;;;5.17;4.00;;;;;;;;;;4954470;28;20195;-83
2022/06/03 03:06:22;;;;;;;3.97;3.43;;;;;;;;;;4969721;28;20210;-83
2022/06/03 03:09:44;;;;;;;6.97;3.90;;;;;;;;;;4965354;28;20206;-83
2022/06/03 03:13:08;;;;;;;4.17;3.77;;;;;;;;;;4961313;28;20191;-83
2022/06/03 03:16:35;;;;;;;4.30;3.90;;;;;;;;;;4956985;28;20239;-83
2022/06/03 03:19:54;;;;;;;5.63;4.07;;;;;;;;;;4945840;29;20196;-83
2022/06/03 03:23:38;;;;;;;5.73;3.33;;;;;;;;;;4952130;28;20195;-83
2022/06/03 03:27:13;;;;;;;4.13;3.73;;;;;;;;;;4945469;29;20714;-83
2022/06/03 03:30:24;;;;;;;4.30;3.90;;;;;;;;;;4956361;29;20666;-83
2022/06/03 03:33:44;;;;;;;5.63;3.77;;;;;;;;;;4966177;28;20551;-83
2022/06/03 03:36:59;;;;;;;7.03;3.93;;;;;;;;;;4956692;29;20698;-83
2022/06/03 03:40:34;;;;;;;7.90;4.07;;;;;;;;;;4956107;29;20192;-82
2022/06/03 03:43:57;;;;;;;5.73;4.07;;;;;;;;;;4956386;29;20188;-83
2022/06/03 03:47:23;;;;;;;6.80;3.87;;;;;;;;;;4956122;29;20223;-83
2022/06/03 03:50:46;;;;;;;4.37;3.97;;;;;;;;;;4945311;29;20215;-83
2022/06/03 03:54:09;;;;;;;7.40;4.40;;;;;;;;;;4956228;29;20643;-83
2022/06/03 03:57:25;;;;;;;5.10;4.57;;;;;;;;;;4956118;29;20673;-83
2022/06/03 04:00:59;;;;;;;4.97;4.17;;;;;;;;;;4956835;29;20195;-83
2022/06/03 04:04:31;;;;;;;6.87;4.23;;;;;;;;;;4966510;28;20183;-83
2022/06/03 04:07:50;;;;;;;4.80;4.40;;;;;;;;;;4956023;29;20219;-82
2022/06/03 04:11:16;;;;;;;4.87;3.90;;;;;;;;;;4955801;29;20211;-83
2022/06/03 04:14:48;;;;;;;5.70;4.97;;;;;;;;;;4934503;29;20184;-83
2022/06/03 04:18:22;;;;;;;4.90;4.13;;;;;;;;;;4933556;29;20709;-83
2022/06/03 04:21:58;;;;;;;6.87;4.50;;;;;;;;;;4933877;29;20179;-85
2022/06/03 04:25:34;;;;;;;5.27;4.37;;;;;;;;;;4944344;29;20184;-82
2022/06/03 04:29:02;;;;;;;4.73;4.27;;;;;;;;;;4944386;29;20203;-83
2022/06/03 04:32:43;;;;;;;7.30;4.40;;;;;;;;;;4941579;28;20682;-82
2022/06/03 04:36:22;;;;;;;5.83;4.63;;;;;;;;;;4933878;29;20655;-82
2022/06/03 04:39:48;;;;;;;8.23;4.13;;;;;;;;;;4955705;29;20508;-82
2022/06/03 04:43:23;;;;;;;9.90;4.67;;;;;;;;;;4933725;29;20188;-83
2022/06/03 04:47:08;;;;;;;5.10;4.60;;;;;;;;;;4933448;29;20223;-82
2022/06/03 04:50:21;;;;;;;6.97;4.53;;;;;;;;;;4933195;29;20219;-82
2022/06/03 04:54:12;;;;;;;5.23;4.27;;;;;;;;;;4955069;29;20524;-82
2022/06/03 04:57:44;;;;;;;4.63;3.93;;;;;;;;;;4955921;29;20215;-82
2022/06/03 05:01:10;;;;;;;4.47;4.07;;;;;;;;;;4944177;29;20179;-82
2022/06/03 05:04:50;;;;;;;4.27;3.93;;;;;;;;;;4933252;29;20184;-82
2022/06/03 05:08:27;;;;;;;6.47;4.50;;;;;;;;;;4954951;29;20223;-82
2022/06/03 05:12:17;;;;;;;4.37;3.90;;;;;;;;;;4932933;29;20576;-82
2022/06/03 05:15:59;;;;;;;5.07;3.90;;;;;;;;;;4943375;29;20184;-82
2022/06/03 05:19:35;;;;;;;4.20;3.50;;;;;;;;;;4954834;29;20183;-82
2022/06/03 05:22:42;;;;;;;4.97;3.93;;;;;;;;;;4954903;29;20179;-82
2022/06/03 05:26:26;;;;;;;5.03;3.67;;;;;;;;;;4943505;29;20188;-82
2022/06/03 05:29:54;;;;;;;4.20;3.47;;;;;;;;;;4932887;29;20180;-82
2022/06/03 05:33:35;;;;;;;5.37;3.30;;;;;;;;;;4943449;29;20183;-82
2022/06/03 05:37:18;;;;;;;4.67;3.47;;;;;;;;;;4943967;29;20219;-82
2022/06/03 05:40:34;;;;;;;4.43;3.70;;;;;;;;;;4889421;28;20181;-82
2022/06/03 05:43:50;;;;;;;3.53;3.23;;;;;;;;;;4954351;29;20628;-82
2022/06/03 05:47:24;;;;;;;5.93;3.40;;;;;;;;;;4954637;28;20220;-83
2022/06/03 05:50:46;;;;;;;3.60;3.27;;;;;;;;;;4954464;29;20207;-82
2022/06/03 05:54:00;;;;;;;3.93;3.50;;;;;;;;;;4954432;29;20184;-82
2022/06/03 05:57:29;;;;;;;4.90;3.70;;;;;;;;;;4954689;29;20219;-82
2022/06/03 06:00:50;;;;;;;4.60;3.70;;;;;;;;;;4954899;28;20183;-82
2022/06/03 06:04:17;;;;;;;4.30;3.50;;;;;;;;;;4955408;29;20192;-83
2022/06/03 06:07:42;;;;;;;4.87;4.30;;;;;;;;;;4955190;29;20219;-83
2022/06/03 06:10:56;;;;;;;4.60;3.10;;;;;;;;;;4954088;29;20671;-83
2022/06/03 06:14:02;;;;;;;3.37;3.07;;;;;;;;;;4943236;29;20188;-83
2022/06/03 06:17:42;;;;;;;4.10;3.50;;;;;;;;;;4997447;23;20567;-82
2022/06/03 06:20:55;;;;;;;3.53;3.23;;;;;;;;;;4999178;28;20194;-82
2022/06/03 06:24:23;;;;;;;6.53;3.50;;;;;;;;;;5001514;28;20173;-82
2022/06/03 06:27:57;;;;;;;6.17;3.53;;;;;;;;;;5016428;28;20221;-82
2022/06/03 06:31:16;;;;;;;3.70;3.07;;;;;;;;;;5005054;28;20213;-82
2022/06/03 06:34:51;;;;;;;3.20;2.90;;;;;;;;;;5005105;28;20182;-81
2022/06/03 06:38:14;;;;;;;5.53;3.40;;;;;;;;;;5018923;28;20221;-82
2022/06/03 06:41:18;;;;;;;5.00;3.50;;;;;;;;;;5016414;28;20525;-82
2022/06/03 06:44:35;;;;;;;5.00;3.53;;;;;;;;;;5016323;28;20178;-81
2022/06/03 06:48:07;;;;;;;4.90;2.67;;;;;;;;;;4993258;28;20221;-82
2022/06/03 06:51:36;;;;;;;9.30;3.20;;;;;;;;;;5017186;28;20553;-82
2022/06/03 06:54:53;;;;;;;4.83;3.20;;;;;;;;;;5004929;28;20636;-82
2022/06/03 06:58:04;;;;;;;4.77;3.00;;;;;;;;;;5015690;28;20222;-82
2022/06/03 07:01:11;;;;;;;4.50;3.03;;;;;;;;;;4993321;28;20182;-83
2022/06/03 07:04:28;;;;;;;4.00;3.30;;;;;;;;;;5016981;28;20193;-82
2022/06/03 07:07:45;;;;;;;3.80;3.40;;;;;;;;;;5016305;28;20213;-82
2022/06/03 07:11:07;;;;;;;4.50;3.57;;;;;;;;;;5004585;28;20687;-83
2022/06/03 07:14:17;;;;;;;4.20;3.20;;;;;;;;;;5004358;28;20178;-82
2022/06/03 07:21:25;;;;;;;4.93;2.70;;;;;;;;;;5016804;28;20178;-82
2022/06/03 07:24:41;;;;;;;2.70;2.50;;;;;;;;;;5015309;28;20178;-82
2022/06/03 07:28:00;;;;;;;3.40;2.90;;;;;;;;;;5003612;28;20214;-82
2022/06/03 07:31:13;;;;;;;2.80;2.60;;;;;;;;;;5014719;28;20550;-82
2022/06/03 07:34:29;;;;;;;5.80;2.60;;;;;;;;;;5003722;28;20522;-82
2022/06/03 07:37:57;;;;;;;3.20;2.40;;;;;;;;;;5014190;28;20213;-83
2022/06/03 07:41:06;;;;;;;6.67;2.50;;;;;;;;;;5003563;28;20173;-82
2022/06/03 07:44:21;;;;;;;8.87;2.83;;;;;;;;;;5015537;28;20195;-82
2022/06/03 07:47:28;;;;;;;3.50;2.80;;;;;;;;;;5003391;28;20215;-83
2022/06/03 07:50:40;;;;;;;4.77;2.80;;;;;;;;;;5003397;28;20220;-83
2022/06/03 07:53:52;;;;;;;2.80;2.27;;;;;;;;;;5014618;28;20192;-82
2022/06/03 07:57:21;;;;;;;2.67;2.40;;;;;;;;;;5003206;28;20213;-82
2022/06/03 08:00:25;;;;;;;23.73;4.00;;;;;;;;;;4993519;28;20566;-82
2022/06/03 08:03:36;;;;;;;3.73;2.57;;;;;;;;;;5003949;28;20200;-83
2022/06/03 08:13:38;;;;;;;2.92;2.03;;;;;;;;;;5003526;28;20549;-83
2022/06/03 08:16:43;;;;;;;4.18;2.10;;;;;;;;;;5014821;28;20705;-83
2022/06/03 08:19:47;;;;;;;2.20;1.98;;;;;;;;;;5014830;28;20188;-84
2022/06/03 08:22:53;;;;;;;3.63;1.70;;;;;;;;;;5002993;28;20181;-83
2022/06/03 08:25:59;;;;;;;2.78;2.15;;;;;;;;;;5003027;28;20180;-83
2022/06/03 08:29:23;;;;;;;3.22;1.90;;;;;;;;;;5002957;28;20638;-84
2022/06/03 08:32:59;;;;;;;4.00;1.80;;;;;;;;;;4991525;28;20213;-84
2022/06/03 08:36:04;;;;;;;4.45;2.13;;;;;;;;;;5002749;28;20182;-83
2022/06/03 08:39:15;;;;;;;4.68;1.95;;;;;;;;;;5002946;28;20194;-83
2022/06/03 08:42:34;;;;;;;3.95;2.00;;;;;;;;;;5002488;28;20184;-83
2022/06/03 08:45:41;;;;;;;3.15;2.15;;;;;;;;;;5014658;28;20627;-83
2022/06/03 08:48:48;;;;;;;2.20;1.95;;;;;;;;;;5002592;28;20178;-83
2022/06/03 08:52:12;;;;;;;2.83;2.20;;;;;;;;;;4991423;28;20213;-83
2022/06/03 08:55:46;;;;;;;2.80;1.80;;;;;;;;;;5013491;28;20181;-81
2022/06/03 08:59:01;;;;;;;1.90;1.80;;;;;;;;;;4991351;28;20174;-81
2022/06/03 09:02:27;;;;;;;2.45;1.70;;;;;;;;;;5002312;28;20518;-81
2022/06/03 09:05:43;;;;;;;3.60;1.83;;;;;;;;;;5002305;28;20629;-81
2022/06/03 09:09:00;;;;;;;3.63;1.80;;;;;;;;;;5013749;28;20182;-81
2022/06/03 09:12:07;;;;;;;3.80;1.90;;;;;;;;;;5002028;28;20213;-82
2022/06/03 09:15:20;;;;;;;3.70;1.90;;;;;;;;;;5013204;28;20193;-81
2022/06/03 09:18:34;;;;;;;5.18;1.83;;;;;;;;;;5014374;28;20229;-81
2022/06/03 09:21:41;;;;;;;3.30;1.60;;;;;;;;;;4990997;28;20178;-81
2022/06/03 09:24:46;;;;;;;5.53;1.70;;;;;;;;;;5013174;28;20178;-82
2022/06/03 09:27:51;;;;;;;3.67;2.00;;;;;;;;;;5001899;28;20225;-82
2022/06/03 09:30:58;;;;;;;9.90;1.70;;;;;;;;;;5014470;28;20689;-83
2022/06/03 09:34:03;;;;;;;2.45;1.63;;;;;;;;;;5001734;28;20178;-82
2022/06/03 09:37:11;;;;;;;2.67;1.83;;;;;;;;;;5001787;28;20217;-82
2022/06/03 09:40:19;;;;;;;2.97;1.63;;;;;;;;;;5012886;28;20198;-82
2022/06/03 09:43:33;;;;;;;2.13;1.77;;;;;;;;;;5002147;28;20182;-82
2022/06/03 09:46:39;;;;;;;2.00;1.45;;;;;;;;;;5012867;28;20221;-82
2022/06/03 09:49:46;;;;;;;3.13;1.77;;;;;;;;;;5013100;28;20186;-82
2022/06/03 09:52:58;;;;;;;3.97;1.70;;;;;;;;;;5012771;28;20206;-82
2022/06/03 09:56:07;;;;;;;3.83;1.88;;;;;;;;;;5001018;28;20629;-84
2022/06/03 09:59:11;;;;;;;1.65;1.40;;;;;;;;;;4990176;28;20197;-84
2022/06/03 10:02:15;;;;;;;1.90;1.70;;;;;;;;;;5003434;28;20194;-84
2022/06/03 10:05:20;;;;;;;2.67;1.80;;;;;;;;;;4994250;28;20660;-84
2022/06/03 10:12:48;;;;;;;2.05;1.55;;;;;;;;;;4993589;28;20209;-84
2022/06/03 10:15:40;;;;;;;2.53;1.70;;;;;;;;;;5016376;28;20186;-84
2022/06/03 10:18:48;;;;;;;2.55;1.75;;;;;;;;;;5004931;28;20186;-83
2022/06/03 10:21:55;;;;;;;2.22;1.58;;;;;;;;;;5004798;28;20221;-83
2022/06/03 10:24:59;;;;;;;6.05;1.90;;;;;;;;;;4993675;28;20174;-83
2022/06/03 10:28:07;;;;;;;2.97;1.80;;;;;;;;;;5015747;28;20217;-84
2022/06/03 10:31:18;;;;;;;2.47;1.90;;;;;;;;;;5016000;28;20197;-83
2022/06/03 10:34:24;;;;;;;5.55;1.73;;;;;;;;;;5016252;28;20530;-84
2022/06/03 10:37:28;;;;;;;2.30;1.90;;;;;;;;;;5015882;28;20536;-84
2022/06/03 10:40:33;;;;;;;1.50;1.40;;;;;;;;;;5004422;28;20185;-83
2022/06/03 10:43:41;;;;;;;5.43;1.70;;;;;;;;;;5004717;28;20174;-84
2022/06/03 10:47:13;;;;;;;5.10;1.60;;;;;;;;;;4993198;28;20221;-84
2022/06/03 10:50:27;;;;;;;2.40;1.60;;;;;;;;;;5015965;28;20185;-84
2022/06/03 11:03:56;;;;;;;3.95;1.85;;;;;;;;;;5004133;28;20185;-83
2022/06/03 11:07:03;;;;;;;1.83;1.70;;;;;;;;;;5015253;28;20221;-83
2022/06/03 11:10:13;;;;;;;1.98;1.77;;;;;;;;;;5004386;28;20248;-83
2022/06/03 11:13:38;;;;;;;2.17;1.60;;;;;;;;;;5015061;28;20190;-83
2022/06/03 11:16:54;;;;;;;7.85;1.80;;;;;;;;;;5015010;28;20222;-83
2022/06/03 11:19:58;;;;;;;3.55;1.42;;;;;;;;;;4993199;28;20182;-84
2022/06/03 11:23:05;;;;;;;2.70;1.60;;;;;;;;;;4992944;28;20209;-83
2022/06/03 11:26:10;;;;;;;4.35;1.63;;;;;;;;;;5004003;28;20185;-84
2022/06/03 11:29:20;;;;;;;1.75;1.60;;;;;;;;;;5003871;28;20186;-83
2022/06/03 11:32:27;;;;;;;2.47;1.50;;;;;;;;;;4992678;28;20175;-83
2022/06/03 11:35:39;;;;;;;1.80;1.60;;;;;;;;;;5014777;28;20198;-84
2022/06/03 11:38:52;;;;;;;3.38;1.70;;;;;;;;;;5003783;28;20186;-84
2022/06/03 11:42:33;;;;;;;2.65;1.40;;;;;;;;;;4992207;28;20210;-83
2022/06/03 11:45:41;;;;;;;4.05;1.60;;;;;;;;;;5003344;28;20194;-84
2022/06/03 11:48:49;;;;;;;2.13;1.60;;;;;;;;;;4992296;28;20182;-83
2022/06/03 11:51:53;;;;;;;3.38;1.80;;;;;;;;;;4992116;28;20177;-83
2022/06/03 11:54:57;;;;;;;3.50;1.65;;;;;;;;;;5003098;28;20198;-83
2022/06/03 11:58:18;;;;;;;2.33;1.70;;;;;;;;;;5003635;28;20221;-84
2022/06/03 12:01:34;;;;;;;4.18;1.48;;;;;;;;;;4991874;28;20186;-84
2022/06/03 12:04:49;;;;;;;1.55;1.45;;;;;;;;;;5014675;28;20183;-84
2022/06/03 12:08:09;;;;;;;2.72;1.30;;;;;;;;;;5003131;28;20225;-84
2022/06/03 12:15:31;;;;;;;3.20;1.77;;;;;;;;;;5002912;28;20182;-84
2022/06/03 12:18:35;;;;;;;2.08;1.70;;;;;;;;;;5017641;23;20234;-83
2022/06/03 12:21:43;;;;;;;1.90;1.50;;;;;;;;;;4972968;28;20206;-83
2022/06/03 12:24:50;;;;;;;1.50;1.40;;;;;;;;;;4972172;28;20629;-83
2022/06/03 12:27:56;;;;;;;2.75;1.80;;;;;;;;;;4983673;28;20693;-83
2022/06/03 12:31:04;;;;;;;2.28;1.45;;;;;;;;;;4994652;28;20187;-83
2022/06/03 12:34:09;;;;;;;2.15;1.20;;;;;;;;;;4994476;28;20179;-83
2022/06/03 12:37:28;;;;;;;1.60;1.40;;;;;;;;;;4983124;28;20217;-83
2022/06/03 12:40:35;;;;;;;2.03;1.83;;;;;;;;;;4994155;28;20195;-83
2022/06/03 12:43:45;;;;;;;1.50;1.40;;;;;;;;;;4983363;28;20210;-83
2022/06/03 12:46:49;;;;;;;1.50;1.40;;;;;;;;;;4983033;28;20186;-83
2022/06/03 12:50:30;;;;;;;3.88;1.60;;;;;;;;;;4993994;28;20179;-83
2022/06/03 12:53:37;;;;;;;1.58;1.45;;;;;;;;;;4994808;28;20642;-83
2022/06/03 12:57:15;;;;;;;3.20;1.45;;;;;;;;;;5005289;28;20174;-82
2022/06/03 13:00:32;;;;;;;1.80;1.42;;;;;;;;;;4982816;28;20525;-83
2022/06/03 13:03:36;;;;;;;4.63;1.70;;;;;;;;;;4993719;28;20211;-83
2022/06/03 13:07:15;;;;;;;1.95;1.52;;;;;;;;;;5004734;28;20202;-82
2022/06/03 13:10:24;;;;;;;2.08;1.35;;;;;;;;;;4994052;28;20183;-83
2022/06/03 13:13:29;;;;;;;1.77;1.30;;;;;;;;;;4982842;28;20191;-83
2022/06/03 13:16:35;;;;;;;2.63;1.35;;;;;;;;;;4993669;28;20183;-83
2022/06/03 13:19:42;;;;;;;1.60;1.50;;;;;;;;;;4993560;28;20175;-83
2022/06/03 13:22:51;;;;;;;1.65;1.30;;;;;;;;;;4982410;28;20206;-83
2022/06/03 13:26:25;;;;;;;1.30;1.20;;;;;;;;;;4971106;28;20634;-83
2022/06/03 13:30:03;;;;;;;1.95;1.40;;;;;;;;;;4993607;28;20175;-83
2022/06/03 13:33:20;;;;;;;3.03;1.50;;;;;;;;;;4959662;28;20202;-83
2022/06/03 13:36:37;;;;;;;1.48;1.10;;;;;;;;;;4981939;28;20626;-83
2022/06/03 13:39:41;;;;;;;1.77;1.10;;;;;;;;;;5004421;28;20537;-83
2022/06/03 13:42:59;;;;;;;2.63;1.45;;;;;;;;;;4982284;28;20553;-83
2022/06/03 13:46:07;;;;;;;2.08;1.40;;;;;;;;;;4993392;28;20186;-83
2022/06/03 13:49:24;;;;;;;2.00;1.25;;;;;;;;;;5004334;28;20179;-83
2022/06/03 13:52:31;;;;;;;1.65;1.35;;;;;;;;;;4993864;28;20175;-83
2022/06/03 13:55:38;;;;;;;2.33;1.33;;;;;;;;;;4982183;28;20202;-83
2022/06/03 13:58:43;;;;;;;3.67;1.42;;;;;;;;;;4981744;28;20214;-83
2022/06/03 14:01:50;;;;;;;1.40;1.27;;;;;;;;;;4970964;28;20186;-83
2022/06/03 14:05:01;;;;;;;1.42;1.33;;;;;;;;;;4993225;28;20179;-83
2022/06/03 14:08:33;;;;;;;2.30;1.48;;;;;;;;;;4982288;28;20545;-84
2022/06/03 14:12:01;;;;;;;2.35;1.35;;;;;;;;;;4982408;28;20187;-85
2022/06/03 14:15:19;;;;;;;2.13;1.30;;;;;;;;;;4988323;28;20186;-85
2022/06/03 14:18:47;;;;;;;1.52;1.25;;;;;;;;;;4982491;28;20226;-85
2022/06/03 14:21:53;;;;;;;2.10;1.50;;;;;;;;;;4994461;28;20179;-85
2022/06/03 14:25:12;;;;;;;2.38;1.40;;;;;;;;;;5005572;28;20190;-85
2022/06/03 14:28:36;;;;;;;1.63;1.30;;;;;;;;;;4983356;28;20218;-85
2022/06/03 14:31:54;;;;;;;3.58;1.60;;;;;;;;;;4994457;28;20217;-85
2022/06/03 14:35:05;;;;;;;2.67;1.35;;;;;;;;;;4993402;28;20179;-84
2022/06/03 14:38:12;;;;;;;2.30;1.55;;;;;;;;;;4981747;28;20222;-84
2022/06/03 14:41:26;;;;;;;4.43;1.30;;;;;;;;;;4992936;28;20194;-84
2022/06/03 14:44:32;;;;;;;4.35;1.45;;;;;;;;;;4970634;28;20640;-84
2022/06/03 14:47:52;;;;;;;2.65;1.60;;;;;;;;;;4993963;28;20223;-81
2022/06/03 14:51:27;;;;;;;3.72;1.88;;;;;;;;;;4986696;28;20187;-84
2022/06/03 14:54:40;;;;;;;3.40;1.52;;;;;;;;;;4985373;28;20519;-84
2022/06/03 14:57:49;;;;;;;3.10;1.90;;;;;;;;;;4995052;28;20220;-84
2022/06/03 15:01:18;;;;;;;2.58;1.70;;;;;;;;;;4984865;28;20193;-82
2022/06/03 15:04:42;;;;;;;2.28;1.67;;;;;;;;;;4986141;28;20209;-84
2022/06/03 15:07:54;;;;;;;2.17;1.52;;;;;;;;;;4985890;28;20563;-84
2022/06/03 15:11:22;;;;;;;1.40;1.30;;;;;;;;;;4997220;28;20188;-84
2022/06/03 15:14:28;;;;;;;1.50;1.40;;;;;;;;;;4986380;28;20185;-84
2022/06/03 15:17:36;;;;;;;1.73;1.63;;;;;;;;;;4984425;28;20233;-83
2022/06/03 15:20:42;;;;;;;1.50;1.35;;;;;;;;;;4984882;28;20183;-84
2022/06/03 15:23:49;;;;;;;2.70;1.65;;;;;;;;;;4984893;28;20212;-84
2022/06/03 15:26:56;;;;;;;3.33;1.60;;;;;;;;;;4996364;28;20188;-84
2022/06/03 15:30:28;;;;;;;1.33;1.23;;;;;;;;;;4998365;28;20185;-83
2022/06/03 15:33:41;;;;;;;3.95;1.80;;;;;;;;;;4979751;28;20185;-84
2022/06/03 15:36:47;;;;;;;3.22;1.55;;;;;;;;;;5007029;28;20185;-84
2022/06/03 15:39:52;;;;;;;2.45;1.80;;;;;;;;;;4974552;28;20524;-84
2022/06/03 15:42:59;;;;;;;4.13;1.70;;;;;;;;;;4984106;28;20206;-87
2022/06/03 15:46:04;;;;;;;2.22;1.85;;;;;;;;;;4995239;28;20180;-87
2022/06/03 15:49:12;;;;;;;1.73;1.63;;;;;;;;;;4973015;28;20635;-87
2022/06/03 15:52:17;;;;;;;3.00;1.70;;;;;;;;;;4984167;28;20185;-87
2022/06/03 15:55:53;;;;;;;2.95;1.80;;;;;;;;;;4983903;28;20626;-87
2022/06/03 15:59:15;;;;;;;4.25;1.90;;;;;;;;;;4970011;28;20226;-86
2022/06/03 16:02:27;;;;;;;5.38;1.70;;;;;;;;;;4983755;28;20178;-87
2022/06/03 16:06:03;;;;;;;4.05;1.90;;;;;;;;;;4983663;28;20181;-87
2022/06/03 16:09:27;;;;;;;2.00;1.48;;;;;;;;;;4983724;28;20176;-87
2022/06/03 16:12:37;;;;;;;4.65;1.55;;;;;;;;;;4983479;28;20622;-87
2022/06/03 16:15:53;;;;;;;2.63;1.70;;;;;;;;;;4983570;28;20187;-87
2022/06/03 16:19:44;;;;;;;3.57;1.67;;;;;;;;;;4994240;28;20220;-87
2022/06/03 16:23:20;;;;;;;1.73;1.63;;;;;;;;;;4983277;28;20190;-87
2022/06/03 16:26:44;;;;;;;3.37;2.00;;;;;;;;;;4994493;28;20226;-86
2022/06/03 16:30:15;;;;;;;3.40;1.87;;;;;;;;;;4983285;28;20629;-87
2022/06/03 16:33:38;;;;;;;3.60;1.90;;;;;;;;;;4983074;28;20179;-86
2022/06/03 16:36:55;;;;;;;3.03;2.07;;;;;;;;;;4983146;28;20189;-85
2022/06/03 16:40:11;;;;;;;2.07;1.87;;;;;;;;;;4972071;28;20630;-85
2022/06/03 16:43:40;;;;;;;2.77;1.93;;;;;;;;;;4982947;28;20209;-86
2022/06/03 16:46:52;;;;;;;6.17;2.20;;;;;;;;;;4982894;28;20189;-86
2022/06/03 16:50:12;;;;;;;5.00;2.33;;;;;;;;;;4983181;28;20184;-86
2022/06/03 16:53:18;;;;;;;3.17;1.97;;;;;;;;;;4971858;28;20178;-86
2022/06/03 16:56:29;;;;;;;2.97;2.07;;;;;;;;;;4993963;28;20183;-86
2022/06/03 16:59:34;;;;;;;3.80;1.60;;;;;;;;;;4982999;28;20200;-86
2022/06/03 17:02:43;;;;;;;2.57;1.40;;;;;;;;;;4994276;28;20187;-86
2022/06/03 17:05:52;;;;;;;4.00;1.73;;;;;;;;;;4971338;28;20191;-86
2022/06/03 17:09:00;;;;;;;3.57;1.90;;;;;;;;;;4982438;28;20222;-85
2022/06/03 17:12:07;;;;;;;2.67;1.80;;;;;;;;;;4981703;28;20187;-86
2022/06/03 17:15:13;;;;;;;3.63;2.00;;;;;;;;;;4982497;28;20182;-83
2022/06/03 17:18:18;;;;;;;6.23;2.20;;;;;;;;;;4971077;28;20222;-84
2022/06/03 17:21:48;;;;;;;10.07;2.50;;;;;;;;;;4982179;28;20546;-84
2022/06/03 17:25:26;;;;;;;6.13;2.97;;;;;;;;;;4993553;28;20699;-84
2022/06/03 17:28:57;;;;;;;5.90;2.43;;;;;;;;;;4982233;28;20217;-84
2022/06/03 17:32:18;;;;;;;4.97;3.10;;;;;;;;;;4982108;28;20182;-84
2022/06/03 17:35:25;;;;;;;9.17;3.20;;;;;;;;;;4982144;28;20183;-84
2022/06/03 17:38:48;;;;;;;12.97;3.27;;;;;;;;;;4981929;28;20688;-83
2022/06/03 17:42:15;;;;;;;19.17;3.73;;;;;;;;;;4993341;28;20183;-83
2022/06/03 17:45:31;;;;;;;7.43;3.30;;;;;;;;;;4993356;28;20255;-83
2022/06/03 17:48:50;;;;;;;5.27;3.00;;;;;;;;;;4992964;28;20214;-84
2022/06/03 17:55:46;;;;;;;6.97;3.23;;;;;;;;;;4992969;28;20209;-83
2022/06/03 17:59:11;;;;;;;5.73;2.93;;;;;;;;;;4993333;28;20213;-83
2022/06/03 18:02:46;;;;;;;5.30;3.10;;;;;;;;;;4981929;28;20186;-83
2022/06/03 18:05:56;;;;;;;8.03;3.33;;;;;;;;;;4992856;28;20183;-83
2022/06/03 18:09:41;;;;;;;7.83;3.10;;;;;;;;;;4981579;28;20217;-83
2022/06/03 18:12:55;;;;;;;8.47;3.07;;;;;;;;;;4988671;28;20202;-83
2022/06/03 18:16:04;;;;;;;8.83;3.30;;;;;;;;;;4981760;28;20208;-83
2022/06/03 18:19:11;;;;;;;6.70;3.47;;;;;;;;;;5012465;23;20230;-81
2022/06/03 18:22:42;;;;;;;8.70;3.53;;;;;;;;;;4995129;28;20174;-81
2022/06/03 18:26:20;;;;;;;6.23;3.70;;;;;;;;;;4997710;28;20170;-82
2022/06/03 18:29:56;;;;;;;8.50;3.90;;;;;;;;;;4998083;28;20218;-81
2022/06/03 18:33:16;;;;;;;5.50;3.37;;;;;;;;;;4986381;28;20186;-82
2022/06/03 18:36:29;;;;;;;6.03;3.80;;;;;;;;;;4997583;28;20187;-82
2022/06/03 18:39:45;;;;;;;4.33;3.27;;;;;;;;;;4985995;28;20183;-82
2022/06/03 18:43:17;;;;;;;5.17;3.40;;;;;;;;;;4998420;28;20182;-82
2022/06/03 18:46:43;;;;;;;7.13;3.60;;;;;;;;;;4986217;28;20178;-82
2022/06/03 18:49:55;;;;;;;7.63;3.77;;;;;;;;;;4997161;28;20186;-82
2022/06/03 18:53:15;;;;;;;7.07;3.50;;;;;;;;;;4985957;28;20589;-82
2022/06/03 18:56:32;;;;;;;4.23;3.20;;;;;;;;;;4997239;28;20182;-82
2022/06/03 19:00:04;;;;;;;5.97;3.30;;;;;;;;;;4975138;28;20179;-82
2022/06/03 19:03:24;;;;;;;4.63;3.33;;;;;;;;;;4986164;28;20182;-82
2022/06/03 19:06:47;;;;;;;4.80;3.30;;;;;;;;;;4986005;28;20186;-82
2022/06/03 19:10:04;;;;;;;5.30;3.60;;;;;;;;;;4986204;28;20625;-82
2022/06/03 19:13:26;;;;;;;6.57;3.10;;;;;;;;;;4985377;28;20187;-82
2022/06/03 19:16:55;;;;;;;4.23;3.30;;;;;;;;;;4985456;28;20187;-82
2022/06/03 19:20:33;;;;;;;5.70;3.60;;;;;;;;;;4997122;28;20204;-83
2022/06/03 19:23:48;;;;;;;6.27;3.93;;;;;;;;;;4989772;28;20523;-82
2022/06/03 19:26:52;;;;;;;4.83;3.63;;;;;;;;;;4996515;28;20187;-82
2022/06/03 19:30:09;;;;;;;4.40;3.63;;;;;;;;;;4985361;28;20178;-82
2022/06/03 19:33:20;;;;;;;9.20;3.73;;;;;;;;;;4973652;28;20182;-81
2022/06/03 19:36:41;;;;;;;6.43;3.60;;;;;;;;;;4985195;28;20178;-81
2022/06/03 19:39:52;;;;;;;6.30;3.70;;;;;;;;;;4995947;28;20198;-82
2022/06/03 19:43:25;;;;;;;5.37;3.50;;;;;;;;;;4985039;28;20182;-82
2022/06/03 19:47:10;;;;;;;5.13;3.63;;;;;;;;;;4995849;28;20179;-82
2022/06/03 19:53:53;;;;;;;5.27;3.33;;;;;;;;;;4996030;28;20183;-82
2022/06/03 19:57:03;;;;;;;5.73;3.87;;;;;;;;;;4995972;28;20178;-82
2022/06/03 20:00:18;;;;;;;4.67;3.67;;;;;;;;;;4973309;28;20190;-82
2022/06/03 20:03:36;;;;;;;4.70;3.60;;;;;;;;;;4973736;28;20186;-81
2022/06/03 20:06:44;;;;;;;7.60;3.77;;;;;;;;;;4995228;28;20198;-82
2022/06/03 20:09:51;;;;;;;6.50;3.73;;;;;;;;;;4995620;28;20202;-84
2022/06/03 20:16:19;;;;;;;6.13;3.93;;;;;;;;;;4983643;28;20183;-83
2022/06/03 20:19:24;;;;;;;4.43;4.03;;;;;;;;;;4983499;28;20558;-82
2022/06/03 20:22:51;;;;;;;4.50;3.90;;;;;;;;;;4997662;28;20182;-83
2022/06/03 20:26:12;;;;;;;5.10;3.80;;;;;;;;;;4986508;28;20206;-82
2022/06/03 20:29:21;;;;;;;6.13;3.60;;;;;;;;;;4984231;28;20214;-82
2022/06/03 20:32:37;;;;;;;7.43;3.93;;;;;;;;;;4984967;28;20534;-82